Time;durP1;ratioP1;P1;durP2;ratioP2;P2;SDS_P1;SDS_P2;PMS_P1;PMS_P2;Temp;Humidity;BMP_temperature;BMP_pressure;BME280_temperature;BME280_humidity;BME280_pressure;Samples;Min_cycle;Max_cycle;Signal;HPM_P1;HPM_P2
2021/11/17 02:27:23;;;;;;;4.87;4.03;;;21.90;55.50;;;;;;5022814;28;20787;-77
2021/11/17 02:30:14;;;;;;;4.57;4.17;;;21.90;55.50;;;;;;4997443;28;20424;-77
2021/11/17 02:33:08;;;;;;;4.73;3.87;;;21.90;55.50;;;;;;4997805;28;20479;-77
2021/11/17 02:35:58;;;;;;;5.77;4.53;;;21.90;55.50;;;;;;4995712;28;20418;-78
2021/11/17 02:38:52;;;;;;;5.83;4.63;;;21.90;55.50;;;;;;5007134;28;20416;-78
2021/11/17 02:41:37;;;;;;;5.60;4.47;;;21.90;55.50;;;;;;5015857;28;20975;-77
2021/11/17 02:44:25;;;;;;;4.73;4.03;;;21.90;55.50;;;;;;4988970;28;20428;-77
2021/11/17 02:46:59;;;;;;;4.23;3.73;;;21.90;55.50;;;;;;5014726;28;20431;-77
2021/11/17 02:49:34;;;;;;;7.03;4.80;;;21.90;55.50;;;;;;5017000;28;20412;-77
2021/11/17 02:52:06;;;;;;;4.83;3.93;;;21.90;55.50;;;;;;5013245;28;20433;-77
2021/11/17 02:55:02;;;;;;;5.40;4.10;;;21.90;55.50;;;;;;4995210;28;20415;-78
2021/11/17 02:58:06;;;;;;;5.73;3.90;;;21.90;55.40;;;;;;5002277;28;20435;-77
2021/11/17 03:00:43;;;;;;;4.30;3.60;;;21.90;55.40;;;;;;5002432;28;20417;-77
2021/11/17 03:03:12;;;;;;;5.73;4.17;;;21.90;56.00;;;;;;5012950;28;20475;-77
2021/11/17 03:05:59;;;;;;;4.70;4.20;;;21.80;55.40;;;;;;5018028;28;20508;-77
2021/11/17 03:08:50;;;;;;;5.87;4.03;;;21.90;55.40;;;;;;5025089;28;20423;-77
2021/11/17 03:11:38;;;;;;;4.80;4.07;;;21.90;55.40;;;;;;5021325;28;20431;-78
2021/11/17 03:14:24;;;;;;;4.90;4.40;;;21.90;55.40;;;;;;5006989;28;20411;-77
2021/11/17 03:17:18;;;;;;;5.10;4.10;;;21.90;55.50;;;;;;4998019;28;20423;-77
2021/11/17 03:20:05;;;;;;;4.50;3.87;;;21.90;55.40;;;;;;5025283;28;20411;-77
2021/11/17 03:22:51;;;;;;;5.10;4.33;;;21.90;55.40;;;;;;5023539;28;20419;-77
2021/11/17 03:25:17;;;;;;;4.30;3.90;;;21.90;55.40;;;;;;5024628;28;20463;-77
2021/11/17 03:28:07;;;;;;;4.60;4.00;;;21.80;55.40;;;;;;5007513;28;20537;-78
2021/11/17 03:30:33;;;;;;;5.33;4.47;;;21.90;55.40;;;;;;5022518;28;20172;-77
2021/11/17 03:33:17;;;;;;;5.70;4.07;;;21.80;55.40;;;;;;5027525;28;20502;-77
2021/11/17 03:36:11;;;;;;;5.17;4.33;;;21.90;55.40;;;;;;5010494;28;20192;-77
2021/11/17 03:38:56;;;;;;;7.10;4.10;;;21.90;55.40;;;;;;5009486;28;20438;-77
2021/11/17 03:41:34;;;;;;;5.30;4.30;;;21.80;55.40;;;;;;5012508;28;20427;-77
2021/11/17 03:44:18;;;;;;;6.13;4.30;;;21.80;55.40;;;;;;5028635;28;20473;-77
2021/11/17 03:46:44;;;;;;;5.27;3.70;;;21.80;55.40;;;;;;5025881;28;20458;-78
2021/11/17 03:49:27;;;;;;;5.33;4.13;;;21.80;55.50;;;;;;5009004;28;20455;-77
2021/11/17 03:52:02;;;;;;;5.03;4.53;;;21.80;55.40;;;;;;5013676;28;20183;-77
2021/11/17 03:54:54;;;;;;;5.03;3.97;;;21.80;55.40;;;;;;5013350;28;20419;-77
2021/11/17 03:57:38;;;;;;;5.27;4.23;;;21.90;55.40;;;;;;5010984;28;20424;-77
2021/11/17 04:00:35;;;;;;;3.90;3.43;;;21.90;55.50;;;;;;5027938;28;20412;-77
2021/11/17 04:03:27;;;;;;;6.03;4.37;;;21.80;55.40;;;;;;5027488;28;20415;-77
2021/11/17 04:06:04;;;;;;;4.20;3.60;;;21.80;55.40;;;;;;5027442;28;20461;-77
2021/11/17 04:09:07;;;;;;;4.33;3.67;;;21.80;55.40;;;;;;5009972;28;20419;-77
2021/11/17 04:11:55;;;;;;;5.10;3.63;;;21.80;55.40;;;;;;5023961;28;20453;-78
2021/11/17 04:15:02;;;;;;;4.60;3.70;;;21.80;55.50;;;;;;5010202;28;20446;-77
2021/11/17 04:17:41;;;;;;;4.67;4.00;;;21.80;55.40;;;;;;5009319;28;20442;-78
2021/11/17 04:20:32;;;;;;;5.40;4.27;;;21.80;55.50;;;;;;4987813;28;20427;-78
2021/11/17 04:23:13;;;;;;;5.70;4.30;;;21.80;55.50;;;;;;5025649;28;20874;-77
2021/11/17 04:25:54;;;;;;;4.27;3.80;;;21.80;55.50;;;;;;5010854;28;20467;-78
2021/11/17 04:28:38;;;;;;;5.00;4.20;;;21.80;55.50;;;;;;5011012;28;20458;-77
2021/11/17 04:31:26;;;;;;;4.97;3.97;;;21.80;55.40;;;;;;5022017;28;20403;-78
2021/11/17 04:34:21;;;;;;;5.87;3.70;;;21.80;55.40;;;;;;5013279;28;20418;-77
2021/11/17 04:37:22;;;;;;;5.10;4.10;;;21.80;55.40;;;;;;5022627;28;20431;-77
2021/11/17 04:40:11;;;;;;;6.00;4.30;;;21.80;55.40;;;;;;5013237;28;20415;-77
2021/11/17 04:43:05;;;;;;;5.57;3.50;;;21.80;55.50;;;;;;5021063;28;20506;-77
2021/11/17 04:46:06;;;;;;;5.17;3.97;;;21.80;55.40;;;;;;5031031;28;20463;-77
2021/11/17 04:48:41;;;;;;;5.10;3.90;;;21.80;55.40;;;;;;4981669;28;20443;-78
2021/11/17 04:51:19;;;;;;;4.93;3.77;;;21.80;55.50;;;;;;5000359;28;20426;-77
2021/11/17 04:54:33;;;;;;;4.50;4.10;;;21.80;55.50;;;;;;5015457;28;20503;-77
2021/11/17 04:57:05;;;;;;;4.53;3.33;;;21.80;55.40;;;;;;4939517;28;20443;-77
2021/11/17 04:59:43;;;;;;;5.50;4.00;;;21.80;55.50;;;;;;4995334;28;20482;-77
2021/11/17 05:02:24;;;;;;;5.50;4.27;;;21.80;55.50;;;;;;5005665;28;20427;-78
2021/11/17 05:05:16;;;;;;;4.33;3.40;;;21.80;55.40;;;;;;5000743;28;20459;-77
2021/11/17 05:07:57;;;;;;;4.73;3.77;;;21.80;55.40;;;;;;4988098;28;20478;-78
2021/11/17 05:10:23;;;;;;;4.60;3.50;;;21.80;55.40;;;;;;5014656;28;20448;-77
2021/11/17 05:12:57;;;;;;;5.03;3.83;;;21.80;55.50;;;;;;5010238;28;20463;-77
2021/11/17 05:15:41;;;;;;;3.73;3.27;;;21.80;55.50;;;;;;5008812;28;20223;-77
2021/11/17 05:18:22;;;;;;;4.20;3.80;;;21.80;55.50;;;;;;5023751;28;20425;-77
2021/11/17 05:21:06;;;;;;;5.40;3.77;;;21.80;55.40;;;;;;5001008;28;20424;-77
2021/11/17 05:23:41;;;;;;;4.77;3.80;;;21.80;55.40;;;;;;5020969;28;20407;-78
2021/11/17 05:26:19;;;;;;;4.47;3.60;;;21.80;55.50;;;;;;5016805;28;20458;-77
2021/11/17 05:29:00;;;;;;;4.80;4.27;;;21.80;55.50;;;;;;5010500;28;20426;-78
2021/11/17 05:31:47;;;;;;;4.53;3.40;;;21.80;55.50;;;;;;5012439;28;20414;-77
2021/11/17 05:34:19;;;;;;;5.90;3.50;;;21.80;55.40;;;;;;4996325;28;20412;-78
2021/11/17 05:36:54;;;;;;;4.13;3.43;;;21.80;55.50;;;;;;5023760;28;20419;-77
2021/11/17 05:39:24;;;;;;;4.90;3.50;;;21.80;55.50;;;;;;4992351;28;20491;-77
2021/11/17 05:42:15;;;;;;;4.83;3.70;;;21.80;55.50;;;;;;5008363;28;20416;-78
2021/11/17 05:45:02;;;;;;;4.00;3.27;;;21.80;55.40;;;;;;5020944;28;20446;-78
2021/11/17 05:48:07;;;;;;;4.33;3.50;;;21.80;55.50;;;;;;5018290;28;20425;-77
2021/11/17 05:50:56;;;;;;;4.77;3.67;;;21.80;55.40;;;;;;4999923;28;20445;-77
2021/11/17 05:53:42;;;;;;;5.90;4.07;;;21.80;55.50;;;;;;5018072;28;20836;-77
2021/11/17 05:56:10;;;;;;;3.83;3.43;;;21.80;55.40;;;;;;5024932;28;20422;-77
2021/11/17 05:58:58;;;;;;;4.57;3.80;;;21.80;55.40;;;;;;5020315;28;20419;-77
2021/11/17 06:01:33;;;;;;;4.53;3.63;;;21.80;55.40;;;;;;5020079;28;20805;-77
2021/11/17 06:04:10;;;;;;;4.10;3.40;;;21.80;55.40;;;;;;5027024;28;20433;-78
2021/11/17 06:06:36;;;;;;;3.50;3.20;;;21.80;55.40;;;;;;5021161;28;20457;-77
2021/11/17 06:09:03;;;;;;;4.37;3.50;;;21.80;55.30;;;;;;5026106;28;20407;-77
2021/11/17 06:11:33;;;;;;;3.53;2.90;;;21.80;55.30;;;;;;5023816;28;20946;-77
2021/11/17 06:14:03;;;;;;;4.27;3.60;;;21.80;55.30;;;;;;5027185;28;20485;-78
2021/11/17 06:16:31;;;;;;;4.43;3.47;;;21.80;55.30;;;;;;5027433;28;20862;-77
2021/11/17 06:18:57;;;;;;;5.13;3.43;;;21.90;55.30;;;;;;5022203;28;20459;-77
2021/11/17 06:21:23;;;;;;;4.70;3.40;;;21.90;55.30;;;;;;5026105;28;20423;-77
2021/11/17 06:23:53;;;;;;;3.67;3.30;;;21.90;55.30;;;;;;5027164;28;20189;-77
2021/11/17 06:26:25;;;;;;;4.30;3.53;;;21.90;55.30;;;;;;5022344;28;20487;-77
2021/11/17 06:28:57;;;;;;;7.83;3.83;;;21.90;55.30;;;;;;5001211;28;20433;-77
2021/11/17 06:31:24;;;;;;;4.43;3.70;;;21.90;55.20;;;;;;5025817;28;20407;-77
2021/11/17 06:33:50;;;;;;;3.97;3.57;;;21.90;55.20;;;;;;5027714;28;20415;-77
2021/11/17 06:36:17;;;;;;;5.07;3.67;;;21.90;55.20;;;;;;5022971;28;20413;-76
2021/11/17 06:38:46;;;;;;;5.10;3.67;;;21.90;55.20;;;;;;5023864;28;20188;-78
2021/11/17 06:41:13;;;;;;;4.80;3.50;;;21.90;55.20;;;;;;5025374;28;20446;-77
2021/11/17 06:43:39;;;;;;;5.50;4.27;;;21.90;55.20;;;;;;5022320;28;20411;-77
2021/11/17 06:46:05;;;;;;;3.73;3.40;;;21.90;55.20;;;;;;5024597;28;20494;-77
2021/11/17 06:48:31;;;;;;;5.00;3.97;;;21.90;55.10;;;;;;5024712;28;20183;-77
2021/11/17 06:51:02;;;;;;;3.33;2.93;;;21.90;55.10;;;;;;5023181;28;20419;-79
2021/11/17 06:53:29;;;;;;;3.57;3.23;;;21.90;55.10;;;;;;5025738;28;20462;-77
2021/11/17 06:55:56;;;;;;;4.67;3.10;;;21.90;55.10;;;;;;5025940;28;20415;-78
2021/11/17 06:58:22;;;;;;;5.83;3.53;;;21.90;55.10;;;;;;5024923;28;20422;-77
2021/11/17 07:00:51;;;;;;;4.50;3.30;;;21.90;55.10;;;;;;5026224;28;20407;-79
2021/11/17 07:03:16;;;;;;;4.10;3.70;;;21.90;55.10;;;;;;5022585;28;20430;-77
2021/11/17 07:05:43;;;;;;;4.37;3.43;;;21.90;55.10;;;;;;5023947;28;20467;-78
2021/11/17 07:08:09;;;;;;;4.03;3.50;;;21.90;55.10;;;;;;5024647;28;20705;-77
2021/11/17 07:10:36;;;;;;;4.60;3.57;;;21.90;55.20;;;;;;5023689;28;20447;-77
2021/11/17 07:13:04;;;;;;;4.47;3.17;;;21.90;55.10;;;;;;5021085;28;20180;-78
2021/11/17 07:15:31;;;;;;;4.07;3.20;;;21.90;55.10;;;;;;5025466;28;20512;-77
2021/11/17 07:17:57;;;;;;;3.90;3.43;;;21.90;55.20;;;;;;5024668;28;20431;-77
2021/11/17 07:20:23;;;;;;;3.47;3.07;;;21.90;55.10;;;;;;5024946;28;20420;-77
2021/11/17 07:22:49;;;;;;;4.33;3.60;;;21.90;55.10;;;;;;5026327;28;20426;-77
2021/11/17 07:25:19;;;;;;;4.30;3.33;;;21.90;55.10;;;;;;5000240;28;20464;-77
2021/11/17 07:27:44;;;;;;;6.13;3.93;;;21.90;55.10;;;;;;5025262;28;20793;-77
2021/11/17 07:30:14;;;;;;;3.53;2.80;;;21.90;55.10;;;;;;5026733;28;20415;-78
2021/11/17 07:32:40;;;;;;;4.10;3.27;;;21.90;55.10;;;;;;5027602;28;20227;-79
2021/11/17 07:35:07;;;;;;;3.50;3.03;;;21.90;55.10;;;;;;5028027;28;20418;-78
2021/11/17 07:37:33;;;;;;;3.60;3.30;;;21.90;55.10;;;;;;5028432;28;20422;-77
2021/11/17 07:39:59;;;;;;;3.10;2.80;;;22.00;55.20;;;;;;5028955;28;20877;-78
2021/11/17 07:42:24;;;;;;;3.23;2.63;;;21.90;55.10;;;;;;5027462;28;20498;-77
2021/11/17 07:44:52;;;;;;;3.57;2.93;;;22.00;55.20;;;;;;5027302;28;20233;-77
2021/11/17 07:47:18;;;;;;;4.30;3.30;;;22.00;55.20;;;;;;5026114;28;20172;-77
2021/11/17 07:49:43;;;;;;;4.13;3.83;;;22.00;55.10;;;;;;5028188;28;20404;-77
2021/11/17 07:52:09;;;;;;;3.83;3.10;;;22.00;55.10;;;;;;5026989;28;20415;-77
2021/11/17 07:54:35;;;;;;;4.17;3.30;;;22.00;55.10;;;;;;5027365;28;20191;-77
2021/11/17 07:57:03;;;;;;;4.30;3.13;;;22.00;55.10;;;;;;5028577;28;20172;-77
2021/11/17 07:59:30;;;;;;;3.53;3.00;;;22.00;55.10;;;;;;5009174;28;20419;-78
2021/11/17 08:02:01;;;;;;;3.53;2.87;;;22.00;55.10;;;;;;4990721;28;20466;-77
2021/11/17 08:04:34;;;;;;;4.30;3.30;;;22.00;55.10;;;;;;5008069;28;20416;-79
2021/11/17 08:07:04;;;;;;;3.67;3.10;;;22.00;55.10;;;;;;5007372;28;20424;-77
2021/11/17 08:09:30;;;;;;;3.20;2.90;;;22.00;55.70;;;;;;4991145;28;20444;-78
2021/11/17 08:11:56;;;;;;;3.60;3.20;;;22.00;55.10;;;;;;5008060;28;20408;-77
2021/11/17 08:14:22;;;;;;;3.83;3.00;;;22.00;55.10;;;;;;5015980;28;20975;-77
2021/11/17 08:16:47;;;;;;;2.90;2.47;;;22.00;55.10;;;;;;5011913;28;20670;-77
2021/11/17 08:19:13;;;;;;;5.80;3.07;;;22.00;55.10;;;;;;5027972;28;20179;-78
2021/11/17 08:21:39;;;;;;;5.70;3.93;;;22.00;55.10;;;;;;5028007;28;20172;-77
2021/11/17 08:24:05;;;;;;;3.90;3.00;;;22.00;55.10;;;;;;5009943;28;20184;-78
2021/11/17 08:26:31;;;;;;;5.50;3.03;;;22.00;55.10;;;;;;5010631;28;20859;-78
2021/11/17 08:28:57;;;;;;;3.07;2.53;;;22.00;55.10;;;;;;5010673;28;20176;-78
2021/11/17 08:31:24;;;;;;;3.40;3.10;;;22.00;55.10;;;;;;5028093;28;20460;-78
2021/11/17 08:33:50;;;;;;;3.60;2.77;;;22.00;55.10;;;;;;4995158;28;20195;-78
2021/11/17 08:36:16;;;;;;;3.17;2.70;;;22.00;55.10;;;;;;5010507;28;20446;-78
2021/11/17 08:38:43;;;;;;;3.80;3.00;;;22.00;55.10;;;;;;5027451;28;20435;-78
2021/11/17 08:41:11;;;;;;;7.40;3.47;;;22.00;55.10;;;;;;5027172;28;20423;-78
2021/11/17 08:43:38;;;;;;;3.90;3.10;;;22.00;55.10;;;;;;5009880;28;20545;-79
2021/11/17 08:46:04;;;;;;;3.83;3.50;;;22.00;55.10;;;;;;5009986;28;20462;-78
2021/11/17 08:48:32;;;;;;;2.80;2.60;;;22.00;55.10;;;;;;5027605;28;20897;-77
2021/11/17 08:51:01;;;;;;;2.83;2.33;;;22.00;55.10;;;;;;5027681;28;20993;-78
2021/11/17 08:53:31;;;;;;;4.10;3.43;;;22.00;55.10;;;;;;5009811;28;20416;-78
2021/11/17 08:55:57;;;;;;;3.50;2.90;;;22.00;55.20;;;;;;5009535;28;20418;-78
2021/11/17 08:58:23;;;;;;;4.23;2.93;;;22.00;55.10;;;;;;5026988;28;20412;-78
2021/11/17 09:00:50;;;;;;;3.90;2.80;;;22.00;55.10;;;;;;5019509;28;20433;-78
2021/11/17 09:03:17;;;;;;;3.47;2.50;;;22.00;55.20;;;;;;5029519;28;20180;-77
2021/11/17 09:05:47;;;;;;;3.80;2.80;;;22.00;55.10;;;;;;5010568;28;20454;-77
2021/11/17 09:08:15;;;;;;;5.27;3.00;;;22.00;55.10;;;;;;5010297;28;20518;-77
2021/11/17 09:10:46;;;;;;;3.40;2.67;;;22.00;55.10;;;;;;5027832;28;20808;-77
2021/11/17 09:13:11;;;;;;;3.40;2.60;;;22.00;55.10;;;;;;5010664;28;20407;-80
2021/11/17 09:15:41;;;;;;;3.00;2.27;;;22.00;55.10;;;;;;5011040;28;20455;-78
2021/11/17 09:18:08;;;;;;;3.63;2.90;;;22.00;55.10;;;;;;4992475;28;20181;-77
2021/11/17 09:20:35;;;;;;;3.73;2.73;;;22.00;55.10;;;;;;5026768;28;20439;-78
2021/11/17 09:23:02;;;;;;;3.70;2.87;;;22.00;55.10;;;;;;5037820;28;20506;-79
2021/11/17 09:25:28;;;;;;;4.80;2.40;;;22.00;55.10;;;;;;5015062;28;20458;-79
2021/11/17 09:27:54;;;;;;;3.33;2.10;;;22.00;55.10;;;;;;5025202;28;20418;-79
2021/11/17 09:30:27;;;;;;;3.33;2.57;;;22.10;55.20;;;;;;5034359;28;20425;-79
2021/11/17 09:32:57;;;;;;;3.37;2.53;;;22.10;55.10;;;;;;5033902;28;20415;-79
2021/11/17 09:35:23;;;;;;;3.33;2.57;;;22.10;55.20;;;;;;5015304;28;20427;-79
2021/11/17 09:37:52;;;;;;;6.60;3.00;;;22.00;55.10;;;;;;5031337;28;20447;-79
2021/11/17 09:40:25;;;;;;;3.37;2.70;;;22.00;55.10;;;;;;5035512;28;20411;-79
2021/11/17 09:42:52;;;;;;;5.30;3.43;;;22.10;55.10;;;;;;5022969;28;20926;-79
2021/11/17 09:45:19;;;;;;;4.30;2.77;;;22.10;55.10;;;;;;5055824;28;20449;-79
2021/11/17 09:47:48;;;;;;;3.30;2.50;;;22.10;55.10;;;;;;5022622;28;20419;-79
2021/11/17 09:50:25;;;;;;;7.10;2.77;;;22.00;55.10;;;;;;5018298;28;20419;-79
2021/11/17 09:53:03;;;;;;;5.03;2.93;;;22.00;55.10;;;;;;5051239;28;20410;-79
2021/11/17 09:55:44;;;;;;;3.70;2.60;;;22.10;55.10;;;;;;5019180;28;20454;-79
2021/11/17 09:58:20;;;;;;;3.50;2.67;;;22.10;55.10;;;;;;5031585;28;20456;-78
2021/11/17 10:01:08;;;;;;;3.53;2.70;;;22.10;55.70;;;;;;5042270;28;20421;-77
2021/11/17 10:03:42;;;;;;;3.43;2.80;;;22.10;55.20;;;;;;5029370;28;20419;-78
2021/11/17 10:06:46;;;;;;;6.70;3.07;;;22.10;55.20;;;;;;5029777;28;20461;-77
2021/11/17 10:14:38;;;;;;;4.43;2.97;;;22.10;55.20;;;;;;5030657;28;20403;-78
2021/11/17 10:17:30;;;;;;;4.47;2.13;;;22.10;55.10;;;;;;5029829;28;20412;-78
2021/11/17 10:20:29;;;;;;;4.97;2.77;;;22.10;55.10;;;;;;5044487;28;20760;-78
2021/11/17 10:23:06;;;;;;;3.07;2.60;;;22.10;55.10;;;;;;5016357;28;20406;-79
2021/11/17 10:25:47;;;;;;;2.83;2.30;;;22.10;55.10;;;;;;5021224;28;20972;-77
2021/11/17 10:28:20;;;;;;;6.57;3.47;;;22.10;55.20;;;;;;5029967;28;20801;-77
2021/11/17 10:30:51;;;;;;;3.70;2.83;;;22.10;55.10;;;;;;5029598;28;20402;-78
2021/11/17 10:33:25;;;;;;;7.13;3.20;;;22.20;55.20;;;;;;5029786;28;20418;-77
2021/11/17 10:36:01;;;;;;;3.17;2.43;;;22.10;55.10;;;;;;5029310;28;20388;-77
2021/11/17 10:38:32;;;;;;;2.53;2.33;;;22.20;55.20;;;;;;5048457;28;20445;-77
2021/11/17 10:41:00;;;;;;;2.90;2.40;;;22.20;55.10;;;;;;5015244;28;20482;-77
2021/11/17 10:43:37;;;;;;;3.93;2.40;;;22.20;55.20;;;;;;5020675;28;20419;-77
2021/11/17 10:46:08;;;;;;;4.73;2.90;;;22.20;55.10;;;;;;5010996;28;20529;-78
2021/11/17 10:48:40;;;;;;;4.40;2.50;;;22.20;55.10;;;;;;5010733;28;20455;-77
2021/11/17 10:51:14;;;;;;;3.50;2.30;;;22.20;55.10;;;;;;5027036;28;20421;-78
2021/11/17 10:53:40;;;;;;;3.17;2.47;;;22.20;55.10;;;;;;5049284;28;20395;-78
2021/11/17 10:56:10;;;;;;;3.47;2.13;;;22.20;55.10;;;;;;5048972;28;20461;-78
2021/11/17 10:58:40;;;;;;;3.53;2.47;;;22.30;55.20;;;;;;5030849;28;20419;-78
2021/11/17 11:01:14;;;;;;;4.93;2.77;;;22.30;55.20;;;;;;5030647;28;20414;-77
2021/11/17 11:03:57;;;;;;;3.77;2.73;;;22.30;55.20;;;;;;5014916;28;20952;-78
2021/11/17 11:07:01;;;;;;;2.83;2.23;;;22.30;55.10;;;;;;5048801;28;20482;-77
2021/11/17 11:09:32;;;;;;;4.03;2.83;;;22.30;55.10;;;;;;5031098;28;20480;-77
2021/11/17 11:12:00;;;;;;;4.47;2.70;;;22.30;55.20;;;;;;5049127;28;20395;-77
2021/11/17 11:14:31;;;;;;;3.63;2.60;;;22.30;55.20;;;;;;5030707;28;20411;-78
2021/11/17 11:17:21;;;;;;;3.20;2.30;;;22.30;55.20;;;;;;5049044;28;20406;-78
2021/11/17 11:19:47;;;;;;;4.70;2.60;;;22.30;55.10;;;;;;5032842;28;20438;-77
2021/11/17 11:22:14;;;;;;;3.83;2.73;;;22.20;55.10;;;;;;5014509;28;20484;-78
2021/11/17 11:24:47;;;;;;;2.90;2.50;;;22.30;55.20;;;;;;5027663;28;20439;-78
2021/11/17 11:27:16;;;;;;;4.30;2.70;;;22.30;55.10;;;;;;5010925;28;20451;-77
2021/11/17 11:29:48;;;;;;;3.27;2.70;;;22.30;55.10;;;;;;5028930;28;20418;-78
2021/11/17 11:32:14;;;;;;;4.57;2.30;;;22.30;55.10;;;;;;5011390;28;20430;-78
2021/11/17 11:35:03;;;;;;;3.73;2.70;;;22.30;55.20;;;;;;5027982;28;20415;-77
2021/11/17 11:37:32;;;;;;;2.10;1.90;;;22.30;55.10;;;;;;5027736;28;20179;-77
2021/11/17 11:40:05;;;;;;;3.80;2.67;;;22.30;55.20;;;;;;5026562;28;20423;-77
2021/11/17 11:42:55;;;;;;;2.97;2.20;;;22.30;55.20;;;;;;5026473;28;20431;-78
2021/11/17 11:45:27;;;;;;;2.90;2.27;;;22.30;55.10;;;;;;5026541;28;20459;-78
2021/11/17 11:48:23;;;;;;;2.60;1.83;;;22.30;55.20;;;;;;5030661;28;20422;-76
2021/11/17 11:50:54;;;;;;;3.80;2.30;;;22.30;55.20;;;;;;5017880;28;20411;-76
2021/11/17 11:53:29;;;;;;;2.50;2.30;;;22.30;55.20;;;;;;5001771;28;20403;-76
2021/11/17 11:56:02;;;;;;;4.10;1.87;;;22.30;55.20;;;;;;5034983;28;20371;-76
2021/11/17 11:58:28;;;;;;;2.93;2.13;;;22.30;55.20;;;;;;5017392;28;20423;-77
2021/11/17 12:04:22;;;;;;;3.93;2.50;;;22.40;55.20;;;;;;5015362;28;20149;-77
2021/11/17 12:07:01;;;;;;;5.10;2.37;;;22.30;55.20;;;;;;5015478;28;20540;-76
2021/11/17 12:09:33;;;;;;;3.33;2.20;;;22.30;55.20;;;;;;5031736;28;20453;-77
2021/11/17 12:12:07;;;;;;;3.97;2.40;;;22.30;55.20;;;;;;5034753;28;20388;-76
2021/11/17 12:14:45;;;;;;;3.60;2.10;;;22.30;55.20;;;;;;5027182;28;20426;-76
2021/11/17 12:17:17;;;;;;;3.93;2.37;;;22.30;55.20;;;;;;5030604;28;20430;-76
2021/11/17 12:19:50;;;;;;;4.73;2.47;;;22.30;55.20;;;;;;5033909;28;20414;-76
2021/11/17 12:22:37;;;;;;;3.03;2.47;;;22.30;55.20;;;;;;5035117;28;20391;-76
2021/11/17 12:25:24;;;;;;;2.90;2.60;;;22.30;55.10;;;;;;5022540;28;20450;-76
2021/11/17 12:28:05;;;;;;;3.70;2.00;;;22.40;55.20;;;;;;5036915;28;20409;-77
2021/11/17 12:30:54;;;;;;;2.80;1.73;;;22.40;55.80;;;;;;5036886;28;20406;-76
2021/11/17 12:33:23;;;;;;;2.83;2.17;;;22.40;55.20;;;;;;5037268;28;20487;-76
2021/11/17 12:36:11;;;;;;;3.77;2.20;;;22.30;55.20;;;;;;5017103;28;20417;-76
2021/11/17 12:38:37;;;;;;;2.43;2.23;;;22.40;55.20;;;;;;5016856;28;20427;-76
2021/11/17 12:41:23;;;;;;;2.90;2.53;;;22.40;55.20;;;;;;5016915;28;20426;-76
2021/11/17 12:44:09;;;;;;;2.70;2.10;;;22.40;55.20;;;;;;5034257;28;20886;-77
2021/11/17 12:46:48;;;;;;;3.47;2.00;;;22.40;55.20;;;;;;5012997;28;20467;-76
2021/11/17 12:49:24;;;;;;;2.77;2.03;;;22.30;55.10;;;;;;5014736;28;20424;-77
2021/11/17 12:52:13;;;;;;;3.90;2.20;;;22.40;55.20;;;;;;5013696;28;20439;-76
2021/11/17 12:54:42;;;;;;;2.57;2.27;;;22.40;55.20;;;;;;5013561;28;20436;-77
2021/11/17 12:57:35;;;;;;;3.67;1.73;;;22.40;55.20;;;;;;5040056;28;20414;-76
2021/11/17 13:00:20;;;;;;;2.73;2.30;;;22.40;55.20;;;;;;5038856;28;20426;-76
2021/11/17 13:02:46;;;;;;;3.80;2.20;;;22.40;55.20;;;;;;5011197;28;20430;-77
2021/11/17 13:05:17;;;;;;;2.00;1.80;;;22.40;55.30;;;;;;5020722;28;20856;-78
2021/11/17 13:07:47;;;;;;;2.80;2.07;;;22.40;55.20;;;;;;5021803;28;20196;-77
2021/11/17 13:10:26;;;;;;;3.10;1.73;;;22.40;55.20;;;;;;5011232;28;20442;-77
2021/11/17 13:13:08;;;;;;;2.87;2.23;;;22.40;55.10;;;;;;5019898;28;20443;-77
2021/11/17 13:16:03;;;;;;;2.70;1.70;;;22.40;55.20;;;;;;5012995;28;20439;-78
2021/11/17 13:18:31;;;;;;;3.10;1.90;;;22.40;55.10;;;;;;5008502;28;20415;-78
2021/11/17 13:21:15;;;;;;;3.13;2.50;;;22.40;55.20;;;;;;5015042;28;20486;-78
2021/11/17 13:23:48;;;;;;;2.57;1.83;;;22.40;55.20;;;;;;5017936;28;20430;-77
2021/11/17 13:26:29;;;;;;;3.73;1.83;;;22.40;55.10;;;;;;5014765;28;20459;-77
2021/11/17 13:28:55;;;;;;;2.50;2.00;;;22.40;55.20;;;;;;5020714;28;20424;-77
2021/11/17 13:31:37;;;;;;;3.10;1.87;;;22.40;55.20;;;;;;5017767;28;20412;-77
2021/11/17 13:34:11;;;;;;;2.60;2.10;;;22.40;55.10;;;;;;5033936;28;20395;-77
2021/11/17 13:37:14;;;;;;;3.00;2.27;;;22.40;55.10;;;;;;5033424;28;20378;-78
2021/11/17 13:39:40;;;;;;;3.27;1.93;;;22.40;55.10;;;;;;5017022;28;20420;-77
2021/11/17 13:42:06;;;;;;;4.53;2.30;;;22.40;55.20;;;;;;5033794;28;20443;-78
2021/11/17 13:44:31;;;;;;;3.23;2.27;;;22.40;55.20;;;;;;5033866;28;20423;-78
2021/11/17 13:47:07;;;;;;;3.97;2.50;;;22.40;55.20;;;;;;5033929;28;20214;-77
2021/11/17 13:49:33;;;;;;;2.70;2.20;;;22.40;55.10;;;;;;5017037;28;20180;-78
2021/11/17 13:51:59;;;;;;;2.60;1.70;;;22.40;55.10;;;;;;5033851;28;20434;-77
2021/11/17 13:54:25;;;;;;;3.37;2.13;;;22.40;55.20;;;;;;5016640;28;20423;-77
2021/11/17 13:56:52;;;;;;;2.10;1.80;;;22.40;55.10;;;;;;5033359;28;20418;-77
2021/11/17 13:59:18;;;;;;;3.20;1.87;;;22.40;55.10;;;;;;5035281;28;20418;-77
2021/11/17 14:01:44;;;;;;;2.30;1.63;;;22.40;55.10;;;;;;5053601;28;20414;-77
2021/11/17 14:04:10;;;;;;;4.10;2.17;;;22.40;55.10;;;;;;5052307;28;20441;-78
2021/11/17 14:06:36;;;;;;;2.70;1.80;;;22.50;55.20;;;;;;5033280;28;20220;-79
2021/11/17 14:09:03;;;;;;;2.90;2.10;;;22.40;55.10;;;;;;5033322;28;20418;-79
2021/11/17 14:11:31;;;;;;;1.90;1.60;;;22.40;55.10;;;;;;5016632;28;20172;-78
2021/11/17 14:13:57;;;;;;;2.63;1.73;;;22.40;55.10;;;;;;5033273;28;20438;-78
2021/11/17 14:16:23;;;;;;;2.80;1.97;;;22.50;55.20;;;;;;5016756;28;20416;-78
2021/11/17 14:18:50;;;;;;;2.97;2.37;;;22.40;55.10;;;;;;5016188;28;20176;-77
2021/11/17 14:21:16;;;;;;;2.57;2.37;;;22.40;55.10;;;;;;5033682;28;20161;-77
2021/11/17 14:23:42;;;;;;;2.70;2.00;;;22.40;55.10;;;;;;5023459;28;20434;-77
2021/11/17 14:26:12;;;;;;;2.77;1.90;;;22.40;55.10;;;;;;5056270;28;20472;-77
2021/11/17 14:28:42;;;;;;;1.80;1.53;;;22.40;55.10;;;;;;5056533;28;20421;-77
2021/11/17 14:31:21;;;;;;;1.40;1.30;;;22.40;55.10;;;;;;5057145;28;20402;-77
2021/11/17 14:33:50;;;;;;;1.83;1.50;;;22.40;55.10;;;;;;5038892;28;20433;-76
2021/11/17 14:36:17;;;;;;;3.63;2.60;;;22.40;55.10;;;;;;5039089;28;20452;-76
2021/11/17 14:38:43;;;;;;;1.97;1.67;;;22.40;55.10;;;;;;5038744;28;20433;-77
2021/11/17 14:41:09;;;;;;;2.60;2.03;;;22.40;55.10;;;;;;5055854;28;20504;-76
2021/11/17 14:43:35;;;;;;;2.87;2.03;;;22.40;55.10;;;;;;5038748;28;20448;-77
2021/11/17 14:49:24;;;;;;;3.37;2.13;;;22.40;55.10;;;;;;5055949;28;20382;-76
2021/11/17 14:51:50;;;;;;;3.00;2.37;;;22.40;55.20;;;;;;5055574;28;20761;-77
2021/11/17 14:54:17;;;;;;;5.80;4.00;;;22.30;55.10;;;;;;5055887;28;20413;-77
2021/11/17 14:56:44;;;;;;;13.00;7.43;;;22.30;55.10;;;;;;5056080;28;20475;-76
2021/11/17 14:59:10;;;;;;;11.67;8.03;;;22.30;55.10;;;;;;5037688;28;20419;-76
2021/11/17 15:04:58;;;;;;;18.63;12.40;;;22.30;55.10;;;;;;5055803;28;20390;-77
2021/11/17 15:07:24;;;;;;;17.00;12.70;;;22.30;55.20;;;;;;5055916;28;20486;-76
2021/11/17 15:09:50;;;;;;;28.00;17.13;;;22.30;55.20;;;;;;5055989;28;20183;-76
2021/11/17 15:12:19;;;;;;;33.17;21.17;;;22.30;55.20;;;;;;5038808;28;20179;-76
2021/11/17 15:14:46;;;;;;;26.63;17.17;;;22.30;55.20;;;;;;5055669;28;20198;-78
2021/11/17 15:17:13;;;;;;;20.77;14.60;;;22.30;55.20;;;;;;5036548;28;20418;-76
2021/11/17 15:19:41;;;;;;;25.10;18.80;;;22.30;55.20;;;;;;5054378;28;20474;-78
2021/11/17 15:22:07;;;;;;;22.63;16.80;;;22.30;55.20;;;;;;5037030;28;20489;-76
2021/11/17 15:24:35;;;;;;;29.03;18.67;;;22.30;55.20;;;;;;5036354;28;20414;-76
2021/11/17 15:27:08;;;;;;;22.67;15.17;;;22.30;55.10;;;;;;5054923;28;20191;-76
2021/11/17 15:29:37;;;;;;;24.03;15.90;;;22.30;55.10;;;;;;5054332;28;20426;-75
2021/11/17 15:32:04;;;;;;;23.10;16.43;;;22.30;55.20;;;;;;5035225;28;20422;-76
2021/11/17 15:34:30;;;;;;;26.47;17.90;;;22.30;55.10;;;;;;5034570;28;20891;-77
2021/11/17 15:36:56;;;;;;;27.30;16.40;;;22.30;55.10;;;;;;5035291;28;20808;-77
2021/11/17 15:39:22;;;;;;;25.83;16.50;;;22.30;55.10;;;;;;5051791;28;20426;-78
2021/11/17 15:41:48;;;;;;;27.53;17.90;;;22.30;55.10;;;;;;5034492;28;20974;-77
2021/11/17 15:44:14;;;;;;;28.77;16.77;;;22.30;55.10;;;;;;5052425;28;20414;-77
2021/11/17 15:46:56;;;;;;;31.00;18.80;;;22.30;55.10;;;;;;5035261;28;20207;-77
2021/11/17 15:49:23;;;;;;;22.83;17.13;;;22.30;55.10;;;;;;5053471;28;20873;-76
2021/11/17 15:51:50;;;;;;;26.53;18.37;;;22.30;55.10;;;;;;5037054;28;20476;-77
2021/11/17 15:54:17;;;;;;;27.20;16.00;;;22.30;55.10;;;;;;5056003;28;20417;-78
2021/11/17 15:56:42;;;;;;;25.43;16.23;;;22.30;55.10;;;;;;5037293;28;20411;-77
2021/11/17 15:59:11;;;;;;;28.43;17.47;;;22.30;55.10;;;;;;5049694;28;20418;-79
2021/11/17 16:01:39;;;;;;;31.80;17.67;;;22.30;55.10;;;;;;5031522;28;20184;-79
2021/11/17 16:04:06;;;;;;;26.90;16.87;;;22.30;55.10;;;;;;5049476;28;20415;-78